sensor_id;sensor_type;location;lat;lon;timestamp;pressure;altitude;pressure_sealevel;temperature;humidity
34742;BME280;20968;42.696;23.360;2022-07-22T00:00:48;95311.69;;;25.53;47.50
34742;BME280;20968;42.696;23.360;2022-07-22T00:03:13;95312.47;;;25.46;47.09
34742;BME280;20968;42.696;23.360;2022-07-22T00:05:38;95310.91;;;25.28;47.92
34742;BME280;20968;42.696;23.360;2022-07-22T00:08:04;95313.16;;;25.22;48.13
34742;BME280;20968;42.696;23.360;2022-07-22T00:10:29;95307.06;;;24.94;48.52
34742;BME280;20968;42.696;23.360;2022-07-22T00:12:55;95315.88;;;25.05;48.61
34742;BME280;20968;42.696;23.360;2022-07-22T00:15:20;95319.25;;;25.11;48.86
34742;BME280;20968;42.696;23.360;2022-07-22T00:17:46;95318.50;;;25.03;48.27
34742;BME280;20968;42.696;23.360;2022-07-22T00:20:11;95325.84;;;24.91;48.38
34742;BME280;20968;42.696;23.360;2022-07-22T00:22:37;95326.13;;;24.71;48.70
34742;BME280;20968;42.696;23.360;2022-07-22T00:25:03;95330.28;;;24.33;49.40
34742;BME280;20968;42.696;23.360;2022-07-22T00:27:28;95329.34;;;24.30;49.39
34742;BME280;20968;42.696;23.360;2022-07-22T00:29:53;95318.28;;;24.25;49.65
34742;BME280;20968;42.696;23.360;2022-07-22T00:32:19;95324.69;;;24.25;49.71
34742;BME280;20968;42.696;23.360;2022-07-22T00:34:44;95325.22;;;24.09;50.04
34742;BME280;20968;42.696;23.360;2022-07-22T00:37:10;95320.91;;;24.23;49.71
34742;BME280;20968;42.696;23.360;2022-07-22T00:39:35;95328.63;;;24.30;49.95
34742;BME280;20968;42.696;23.360;2022-07-22T00:42:01;95330.09;;;24.31;49.82
34742;BME280;20968;42.696;23.360;2022-07-22T00:44:27;95335.56;;;24.43;49.55
34742;BME280;20968;42.696;23.360;2022-07-22T00:46:52;95335.94;;;24.47;49.94
34742;BME280;20968;42.696;23.360;2022-07-22T00:49:17;95333.50;;;24.44;48.89
34742;BME280;20968;42.696;23.360;2022-07-22T00:51:44;95328.63;;;24.44;48.59
34742;BME280;20968;42.696;23.360;2022-07-22T00:54:10;95336.66;;;24.40;49.20
34742;BME280;20968;42.696;23.360;2022-07-22T00:56:36;95327.66;;;24.34;49.21
34742;BME280;20968;42.696;23.360;2022-07-22T00:59:06;95326.19;;;24.26;49.29
34742;BME280;20968;42.696;23.360;2022-07-22T01:01:32;95322.78;;;24.28;48.99
34742;BME280;20968;42.696;23.360;2022-07-22T01:03:58;95325.03;;;24.29;49.36
34742;BME280;20968;42.696;23.360;2022-07-22T01:06:24;95321.47;;;24.29;49.28
34742;BME280;20968;42.696;23.360;2022-07-22T01:08:49;95328.44;;;24.13;49.43
34742;BME280;20968;42.696;23.360;2022-07-22T01:11:17;95329.38;;;24.15;49.55
34742;BME280;20968;42.696;23.360;2022-07-22T01:13:43;95326.94;;;23.97;49.87
34742;BME280;20968;42.696;23.360;2022-07-22T01:16:13;95336.88;;;23.98;49.66
34742;BME280;20968;42.696;23.360;2022-07-22T01:18:40;95329.56;;;24.02;49.81
34742;BME280;20968;42.696;23.360;2022-07-22T01:21:06;95325.06;;;23.99;49.63
34742;BME280;20968;42.696;23.360;2022-07-22T01:23:32;95329.56;;;24.02;49.61
34742;BME280;20968;42.696;23.360;2022-07-22T01:25:58;95324.69;;;24.03;49.64
34742;BME280;20968;42.696;23.360;2022-07-22T01:28:25;95324.50;;;24.08;49.75
34742;BME280;20968;42.696;23.360;2022-07-22T01:30:51;95317.91;;;24.13;49.84
34742;BME280;20968;42.696;23.360;2022-07-22T01:33:21;95329.34;;;24.08;49.93
34742;BME280;20968;42.696;23.360;2022-07-22T01:35:47;95327.88;;;23.92;49.69
34742;BME280;20968;42.696;23.360;2022-07-22T01:38:13;95331.78;;;23.96;49.69
34742;BME280;20968;42.696;23.360;2022-07-22T01:40:40;95332.56;;;23.82;50.04
34742;BME280;20968;42.696;23.360;2022-07-22T01:43:06;95319.44;;;23.84;50.03
34742;BME280;20968;42.696;23.360;2022-07-22T01:45:31;95323.16;;;23.87;50.04
34742;BME280;20968;42.696;23.360;2022-07-22T01:47:57;95322.97;;;23.85;49.93
34742;BME280;20968;42.696;23.360;2022-07-22T01:50:23;95310.41;;;23.86;50.02
34742;BME280;20968;42.696;23.360;2022-07-22T01:52:49;95322.25;;;23.92;50.31
34742;BME280;20968;42.696;23.360;2022-07-22T01:55:14;95322.41;;;23.94;50.54
34742;BME280;20968;42.696;23.360;2022-07-22T01:57:39;95321.63;;;23.71;50.51
34742;BME280;20968;42.696;23.360;2022-07-22T02:00:06;95324.44;;;23.63;50.60
34742;BME280;20968;42.696;23.360;2022-07-22T02:02:33;95336.59;;;23.51;50.80
34742;BME280;20968;42.696;23.360;2022-07-22T02:04:59;95330.00;;;23.41;51.27
34742;BME280;20968;42.696;23.360;2022-07-22T02:07:24;95332.09;;;23.41;51.34
34742;BME280;20968;42.696;23.360;2022-07-22T02:09:51;95341.84;;;23.47;51.40
34742;BME280;20968;42.696;23.360;2022-07-22T02:12:17;95340.94;;;23.52;51.11
34742;BME280;20968;42.696;23.360;2022-07-22T02:14:43;95352.19;;;23.59;50.86
34742;BME280;20968;42.696;23.360;2022-07-22T02:17:08;95344.28;;;23.43;51.21
34742;BME280;20968;42.696;23.360;2022-07-22T02:19:34;95337.13;;;23.35;51.22
34742;BME280;20968;42.696;23.360;2022-07-22T02:21:59;95351.56;;;23.39;51.17
34742;BME280;20968;42.696;23.360;2022-07-22T02:24:25;95343.88;;;23.39;51.51
34742;BME280;20968;42.696;23.360;2022-07-22T02:26:50;95351.03;;;23.48;51.61
34742;BME280;20968;42.696;23.360;2022-07-22T02:29:15;95342.22;;;23.51;51.04
34742;BME280;20968;42.696;23.360;2022-07-22T02:31:41;95343.72;;;23.45;51.21
34742;BME280;20968;42.696;23.360;2022-07-22T02:34:07;95346.16;;;23.48;50.97
34742;BME280;20968;42.696;23.360;2022-07-22T02:36:32;95348.97;;;23.48;50.93
34742;BME280;20968;42.696;23.360;2022-07-22T02:38:58;95344.47;;;23.45;51.10
34742;BME280;20968;42.696;23.360;2022-07-22T02:41:23;95341.09;;;23.47;51.12
34742;BME280;20968;42.696;23.360;2022-07-22T02:43:48;95343.34;;;23.41;51.29
34742;BME280;20968;42.696;23.360;2022-07-22T02:46:15;95346.31;;;23.43;51.02
34742;BME280;20968;42.696;23.360;2022-07-22T02:48:40;95350.84;;;23.46;51.67
34742;BME280;20968;42.696;23.360;2022-07-22T02:51:06;95346.72;;;23.47;51.49
34742;BME280;20968;42.696;23.360;2022-07-22T02:53:31;95355.16;;;23.47;51.61
34742;BME280;20968;42.696;23.360;2022-07-22T02:55:56;95351.03;;;23.48;51.38
34742;BME280;20968;42.696;23.360;2022-07-22T02:58:22;95346.34;;;23.50;51.59
34742;BME280;20968;42.696;23.360;2022-07-22T03:00:47;95357.56;;;23.35;51.70
34742;BME280;20968;42.696;23.360;2022-07-22T03:03:13;95346.63;;;23.24;51.76
34742;BME280;20968;42.696;23.360;2022-07-22T03:05:38;95349.28;;;23.22;51.88
34742;BME280;20968;42.696;23.360;2022-07-22T03:08:03;95347.78;;;23.21;52.09
34742;BME280;20968;42.696;23.360;2022-07-22T03:10:29;95349.66;;;23.26;52.14
34742;BME280;20968;42.696;23.360;2022-07-22T03:12:54;95349.66;;;23.26;52.23
34742;BME280;20968;42.696;23.360;2022-07-22T03:15:20;95347.25;;;23.30;52.16
34742;BME280;20968;42.696;23.360;2022-07-22T03:17:45;95342.34;;;23.31;52.08
34742;BME280;20968;42.696;23.360;2022-07-22T03:20:11;95344.06;;;23.41;52.06
34742;BME280;20968;42.696;23.360;2022-07-22T03:22:37;95352.31;;;23.39;51.99
34742;BME280;20968;42.696;23.360;2022-07-22T03:25:02;95349.50;;;23.32;52.09
34742;BME280;20968;42.696;23.360;2022-07-22T03:27:28;95349.13;;;23.35;52.19
34742;BME280;20968;42.696;23.360;2022-07-22T03:29:54;95344.22;;;23.28;52.25
34742;BME280;20968;42.696;23.360;2022-07-22T03:32:19;95343.25;;;23.18;52.69
34742;BME280;20968;42.696;23.360;2022-07-22T03:34:45;95353.72;;;23.10;52.73
34742;BME280;20968;42.696;23.360;2022-07-22T03:37:11;95352.03;;;23.07;53.00
34742;BME280;20968;42.696;23.360;2022-07-22T03:39:36;95358.44;;;23.15;52.94
34742;BME280;20968;42.696;23.360;2022-07-22T03:42:02;95352.88;;;22.95;53.05
34742;BME280;20968;42.696;23.360;2022-07-22T03:44:27;95365.63;;;22.96;53.14
34742;BME280;20968;42.696;23.360;2022-07-22T03:46:53;95361.00;;;23.06;53.05
34742;BME280;20968;42.696;23.360;2022-07-22T03:49:18;95358.75;;;23.04;53.57
34742;BME280;20968;42.696;23.360;2022-07-22T03:51:43;95367.59;;;23.08;52.84
34742;BME280;20968;42.696;23.360;2022-07-22T03:54:09;95364.97;;;23.10;52.77
34742;BME280;20968;42.696;23.360;2022-07-22T03:56:34;95365.53;;;23.16;52.90
34742;BME280;20968;42.696;23.360;2022-07-22T03:59:00;95370.06;;;23.19;52.75
34742;BME280;20968;42.696;23.360;2022-07-22T04:01:26;95374.38;;;23.20;52.50
34742;BME280;20968;42.696;23.360;2022-07-22T04:03:51;95381.16;;;23.32;52.16
34742;BME280;20968;42.696;23.360;2022-07-22T04:06:17;95377.25;;;23.35;52.73
34742;BME280;20968;42.696;23.360;2022-07-22T04:08:43;95374.63;;;23.37;52.71
34742;BME280;20968;42.696;23.360;2022-07-22T04:11:08;95378.19;;;23.38;52.54
34742;BME280;20968;42.696;23.360;2022-07-22T04:13:34;95386.25;;;23.41;51.98
34742;BME280;20968;42.696;23.360;2022-07-22T04:15:59;95382.88;;;23.35;51.47
34742;BME280;20968;42.696;23.360;2022-07-22T04:18:25;95383.44;;;23.34;51.66
34742;BME280;20968;42.696;23.360;2022-07-22T04:20:50;95381.94;;;23.40;51.62
34742;BME280;20968;42.696;23.360;2022-07-22T04:23:16;95374.44;;;23.43;51.75
34742;BME280;20968;42.696;23.360;2022-07-22T04:25:42;95376.34;;;23.48;50.93
34742;BME280;20968;42.696;23.360;2022-07-22T04:28:07;95386.97;;;23.34;51.42
34742;BME280;20968;42.696;23.360;2022-07-22T04:30:33;95385.50;;;23.41;51.00
34742;BME280;20968;42.696;23.360;2022-07-22T04:32:59;95389.47;;;23.45;51.01
34742;BME280;20968;42.696;23.360;2022-07-22T04:35:25;95399.78;;;23.50;51.01
34742;BME280;20968;42.696;23.360;2022-07-22T04:37:51;95397.75;;;23.58;50.70
34742;BME280;20968;42.696;23.360;2022-07-22T04:40:16;95402.03;;;23.44;51.05
34742;BME280;20968;42.696;23.360;2022-07-22T04:42:41;95391.25;;;23.28;50.92
34742;BME280;20968;42.696;23.360;2022-07-22T04:45:07;95396.94;;;23.43;51.33
34742;BME280;20968;42.696;23.360;2022-07-22T04:47:33;95400.56;;;23.58;51.04
34742;BME280;20968;42.696;23.360;2022-07-22T04:49:58;95398.72;;;23.68;50.50
34742;BME280;20968;42.696;23.360;2022-07-22T04:52:23;95401.19;;;23.79;50.52
34742;BME280;20968;42.696;23.360;2022-07-22T04:54:49;95406.84;;;23.86;50.54
34742;BME280;20968;42.696;23.360;2022-07-22T04:57:15;95399.34;;;23.89;49.91
34742;BME280;20968;42.696;23.360;2022-07-22T04:59:40;95403.13;;;23.99;49.85
34742;BME280;20968;42.696;23.360;2022-07-22T05:02:06;95410.44;;;24.17;49.27
34742;BME280;20968;42.696;23.360;2022-07-22T05:04:31;95408.03;;;24.21;49.65
34742;BME280;20968;42.696;23.360;2022-07-22T05:06:57;95407.09;;;24.33;49.25
34742;BME280;20968;42.696;23.360;2022-07-22T05:09:22;95415.56;;;24.48;48.56
34742;BME280;20968;42.696;23.360;2022-07-22T05:11:47;95408.78;;;24.51;48.42
34742;BME280;20968;42.696;23.360;2022-07-22T05:14:13;95401.81;;;24.37;48.12
34742;BME280;20968;42.696;23.360;2022-07-22T05:16:38;95415.91;;;24.37;48.83
34742;BME280;20968;42.696;23.360;2022-07-22T05:19:04;95419.88;;;24.56;48.88
34742;BME280;20968;42.696;23.360;2022-07-22T05:21:31;95423.59;;;24.74;47.75
34742;BME280;20968;42.696;23.360;2022-07-22T05:23:56;95415.50;;;24.85;48.70
34742;BME280;20968;42.696;23.360;2022-07-22T05:26:22;95411.00;;;24.97;48.76
34742;BME280;20968;42.696;23.360;2022-07-22T05:28:49;95416.59;;;25.19;46.45
34742;BME280;20968;42.696;23.360;2022-07-22T05:31:14;95421.50;;;25.19;47.86
34742;BME280;20968;42.696;23.360;2022-07-22T05:33:40;95413.91;;;25.29;47.97
34742;BME280;20968;42.696;23.360;2022-07-22T05:36:05;95415.00;;;25.41;47.65
34742;BME280;20968;42.696;23.360;2022-07-22T05:38:34;95417.78;;;25.56;46.25
34742;BME280;20968;42.696;23.360;2022-07-22T05:40:59;95410.63;;;25.55;47.57
34742;BME280;20968;42.696;23.360;2022-07-22T05:43:25;95415.47;;;25.62;48.09
34742;BME280;20968;42.696;23.360;2022-07-22T05:45:51;95420.88;;;25.75;47.98
34742;BME280;20968;42.696;23.360;2022-07-22T05:48:16;95430.63;;;25.89;47.71
34742;BME280;20968;42.696;23.360;2022-07-22T05:50:42;95424.63;;;26.09;47.02
34742;BME280;20968;42.696;23.360;2022-07-22T05:53:07;95419.16;;;26.11;46.60
34742;BME280;20968;42.696;23.360;2022-07-22T05:55:33;95407.06;;;26.18;45.96
34742;BME280;20968;42.696;23.360;2022-07-22T05:57:58;95414.28;;;26.36;46.39
34742;BME280;20968;42.696;23.360;2022-07-22T06:00:24;95416.13;;;26.48;46.37
34742;BME280;20968;42.696;23.360;2022-07-22T06:02:49;95417.50;;;26.64;45.65
34742;BME280;20968;42.696;23.360;2022-07-22T06:05:14;95412.75;;;26.67;43.43
34742;BME280;20968;42.696;23.360;2022-07-22T06:07:40;95411.88;;;26.57;44.16
34742;BME280;20968;42.696;23.360;2022-07-22T06:10:05;95410.34;;;26.63;44.33
34742;BME280;20968;42.696;23.360;2022-07-22T06:12:31;95413.25;;;26.73;44.93
34742;BME280;20968;42.696;23.360;2022-07-22T06:14:56;95420.31;;;26.81;45.08
34742;BME280;20968;42.696;23.360;2022-07-22T06:17:22;95404.53;;;26.78;45.44
34742;BME280;20968;42.696;23.360;2022-07-22T06:19:47;95418.34;;;26.91;45.40
34742;BME280;20968;42.696;23.360;2022-07-22T06:22:13;95416.97;;;26.99;44.34
34742;BME280;20968;42.696;23.360;2022-07-22T06:24:38;95422.75;;;27.09;43.16
34742;BME280;20968;42.696;23.360;2022-07-22T06:27:03;95412.06;;;27.00;45.29
34742;BME280;20968;42.696;23.360;2022-07-22T06:29:30;95421.25;;;27.25;44.08
34742;BME280;20968;42.696;23.360;2022-07-22T06:31:55;95415.25;;;27.38;44.60
34742;BME280;20968;42.696;23.360;2022-07-22T06:34:21;95414.16;;;27.50;43.78
34742;BME280;20968;42.696;23.360;2022-07-22T06:36:46;95415.63;;;27.68;44.17
34742;BME280;20968;42.696;23.360;2022-07-22T06:39:12;95421.94;;;27.76;44.84
34742;BME280;20968;42.696;23.360;2022-07-22T06:41:37;95421.44;;;27.87;42.17
34742;BME280;20968;42.696;23.360;2022-07-22T06:44:03;95417.75;;;27.94;42.87
34742;BME280;20968;42.696;23.360;2022-07-22T06:46:28;95420.06;;;28.05;44.18
34742;BME280;20968;42.696;23.360;2022-07-22T06:48:54;95415.50;;;28.19;42.22
34742;BME280;20968;42.696;23.360;2022-07-22T06:51:19;95415.41;;;28.26;42.66
34742;BME280;20968;42.696;23.360;2022-07-22T06:53:44;95419.59;;;28.25;42.34
34742;BME280;20968;42.696;23.360;2022-07-22T06:56:11;95409.00;;;28.26;41.83
34742;BME280;20968;42.696;23.360;2022-07-22T06:58:38;95410.94;;;28.23;42.18
34742;BME280;20968;42.696;23.360;2022-07-22T07:01:04;95404.25;;;28.28;41.56
34742;BME280;20968;42.696;23.360;2022-07-22T07:03:29;95413.97;;;28.35;41.29
34742;BME280;20968;42.696;23.360;2022-07-22T07:05:54;95414.34;;;28.22;41.54
34742;BME280;20968;42.696;23.360;2022-07-22T07:08:20;95418.84;;;28.25;41.49
34742;BME280;20968;42.696;23.360;2022-07-22T07:10:45;95419.19;;;28.29;41.40
34742;BME280;20968;42.696;23.360;2022-07-22T07:13:11;95417.97;;;28.32;40.57
34742;BME280;20968;42.696;23.360;2022-07-22T07:15:36;95411.28;;;28.37;40.29
34742;BME280;20968;42.696;23.360;2022-07-22T07:18:02;95417.44;;;28.16;40.11
34742;BME280;20968;42.696;23.360;2022-07-22T07:20:28;95413.28;;;28.17;40.27
34742;BME280;20968;42.696;23.360;2022-07-22T07:22:53;95422.91;;;28.31;39.89
34742;BME280;20968;42.696;23.360;2022-07-22T07:25:20;95420.22;;;28.33;40.80
34742;BME280;20968;42.696;23.360;2022-07-22T07:27:45;95415.78;;;28.39;40.29
34742;BME280;20968;42.696;23.360;2022-07-22T07:30:14;95423.25;;;28.44;40.05
34742;BME280;20968;42.696;23.360;2022-07-22T07:32:39;95417.88;;;28.39;40.05
34742;BME280;20968;42.696;23.360;2022-07-22T07:35:05;95415.94;;;28.41;39.39
34742;BME280;20968;42.696;23.360;2022-07-22T07:37:32;95420.78;;;28.58;41.59
34742;BME280;20968;42.696;23.360;2022-07-22T07:39:57;95415.75;;;28.75;39.06
34742;BME280;20968;42.696;23.360;2022-07-22T07:42:23;95422.75;;;28.74;38.07
34742;BME280;20968;42.696;23.360;2022-07-22T07:44:48;95409.94;;;28.73;39.18
34742;BME280;20968;42.696;23.360;2022-07-22T07:47:14;95416.56;;;28.85;38.65
34742;BME280;20968;42.696;23.360;2022-07-22T07:49:44;95424.81;;;29.00;37.97
34742;BME280;20968;42.696;23.360;2022-07-22T07:52:11;95413.78;;;29.04;38.38
34742;BME280;20968;42.696;23.360;2022-07-22T07:54:38;95413.34;;;29.08;38.34
34742;BME280;20968;42.696;23.360;2022-07-22T07:57:05;95424.69;;;29.26;37.61
34742;BME280;20968;42.696;23.360;2022-07-22T07:59:31;95425.31;;;29.34;37.12
34742;BME280;20968;42.696;23.360;2022-07-22T08:01:56;95422.03;;;29.47;38.04
34742;BME280;20968;42.696;23.360;2022-07-22T08:04:22;95415.31;;;29.62;37.35
34742;BME280;20968;42.696;23.360;2022-07-22T08:06:47;95415.00;;;29.77;37.63
34742;BME280;20968;42.696;23.360;2022-07-22T08:09:13;95420.41;;;29.92;36.75
34742;BME280;20968;42.696;23.360;2022-07-22T08:11:38;95412.91;;;29.96;35.46
34742;BME280;20968;42.696;23.360;2022-07-22T08:14:04;95419.75;;;30.12;36.48
34742;BME280;20968;42.696;23.360;2022-07-22T08:16:29;95417.50;;;30.20;36.88
34742;BME280;20968;42.696;23.360;2022-07-22T08:18:55;95419.84;;;30.33;36.66
34742;BME280;20968;42.696;23.360;2022-07-22T08:21:20;95409.63;;;30.49;36.16
34742;BME280;20968;42.696;23.360;2022-07-22T08:23:45;95416.47;;;30.65;35.61
34742;BME280;20968;42.696;23.360;2022-07-22T08:26:11;95411.97;;;30.62;34.93
34742;BME280;20968;42.696;23.360;2022-07-22T08:28:36;95411.47;;;30.75;35.84
34742;BME280;20968;42.696;23.360;2022-07-22T08:31:02;95407.34;;;30.87;33.27
34742;BME280;20968;42.696;23.360;2022-07-22T08:33:27;95412.34;;;31.07;33.97
34742;BME280;20968;42.696;23.360;2022-07-22T08:35:53;95406.88;;;31.21;34.44
34742;BME280;20968;42.696;23.360;2022-07-22T08:38:18;95413.97;;;31.31;33.98
34742;BME280;20968;42.696;23.360;2022-07-22T08:40:44;95407.13;;;31.46;33.21
34742;BME280;20968;42.696;23.360;2022-07-22T08:43:10;95402.00;;;31.54;33.58
34742;BME280;20968;42.696;23.360;2022-07-22T08:45:35;95411.81;;;31.62;32.82
34742;BME280;20968;42.696;23.360;2022-07-22T08:48:00;95412.09;;;31.66;32.14
34742;BME280;20968;42.696;23.360;2022-07-22T08:50:29;95411.00;;;31.71;32.28
34742;BME280;20968;42.696;23.360;2022-07-22T08:52:56;95404.72;;;31.84;33.66
34742;BME280;20968;42.696;23.360;2022-07-22T08:55:21;95405.91;;;32.02;33.19
34742;BME280;20968;42.696;23.360;2022-07-22T08:57:48;95415.19;;;32.35;32.07
34742;BME280;20968;42.696;23.360;2022-07-22T09:00:16;95415.22;;;32.46;31.18
34742;BME280;20968;42.696;23.360;2022-07-22T09:02:43;95414.94;;;32.53;31.09
34742;BME280;20968;42.696;23.360;2022-07-22T09:05:10;95411.47;;;32.43;31.02
34742;BME280;20968;42.696;23.360;2022-07-22T09:07:38;95415.28;;;32.37;30.49
34742;BME280;20968;42.696;23.360;2022-07-22T09:10:16;95421.28;;;32.41;31.18
34742;BME280;20968;42.696;23.360;2022-07-22T09:12:59;95421.44;;;32.65;31.92
34742;BME280;20968;42.696;23.360;2022-07-22T09:15:30;95420.69;;;32.88;31.15
34742;BME280;20968;42.696;23.360;2022-07-22T09:17:57;95419.47;;;33.02;32.13
34742;BME280;20968;42.696;23.360;2022-07-22T09:20:23;95418.72;;;33.13;30.15
34742;BME280;20968;42.696;23.360;2022-07-22T09:22:49;95424.78;;;32.96;29.99
34742;BME280;20968;42.696;23.360;2022-07-22T09:25:30;95420.09;;;33.12;29.55
34742;BME280;20968;42.696;23.360;2022-07-22T09:30:30;95408.78;;;33.14;30.55
34742;BME280;20968;42.696;23.360;2022-07-22T09:32:56;95411.63;;;33.14;31.02
34742;BME280;20968;42.696;23.360;2022-07-22T09:35:22;95409.22;;;33.45;30.47
34742;BME280;20968;42.696;23.360;2022-07-22T09:38:02;95412.06;;;33.45;30.39
34742;BME280;20968;42.696;23.360;2022-07-22T09:40:31;95413.28;;;33.53;29.62
34742;BME280;20968;42.696;23.360;2022-07-22T09:42:59;95408.81;;;33.62;29.50
34742;BME280;20968;42.696;23.360;2022-07-22T09:45:30;95410.06;;;33.59;29.65
34742;BME280;20968;42.696;23.360;2022-07-22T09:47:57;95417.00;;;33.67;28.81
34742;BME280;20968;42.696;23.360;2022-07-22T09:50:28;95404.66;;;33.76;29.25
34742;BME280;20968;42.696;23.360;2022-07-22T09:52:55;95399.59;;;34.00;30.17
34742;BME280;20968;42.696;23.360;2022-07-22T09:55:23;95396.16;;;33.90;29.45
34742;BME280;20968;42.696;23.360;2022-07-22T09:57:50;95401.50;;;34.20;29.35
34742;BME280;20968;42.696;23.360;2022-07-22T10:00:18;95403.56;;;34.44;29.62
34742;BME280;20968;42.696;23.360;2022-07-22T10:02:56;95389.84;;;34.54;28.72
34742;BME280;20968;42.696;23.360;2022-07-22T10:05:30;95397.06;;;34.55;28.79
34742;BME280;20968;42.696;23.360;2022-07-22T10:07:56;95392.28;;;34.60;28.40
34742;BME280;20968;42.696;23.360;2022-07-22T10:10:24;95393.25;;;34.64;27.95
34742;BME280;20968;42.696;23.360;2022-07-22T10:12:51;95397.59;;;34.65;27.63
34742;BME280;20968;42.696;23.360;2022-07-22T10:15:18;95390.50;;;34.66;27.77
34742;BME280;20968;42.696;23.360;2022-07-22T10:17:47;95380.03;;;34.84;27.85
34742;BME280;20968;42.696;23.360;2022-07-22T10:20:17;95383.84;;;35.02;28.63
34742;BME280;20968;42.696;23.360;2022-07-22T10:25:10;95376.13;;;35.04;26.95
34742;BME280;20968;42.696;23.360;2022-07-22T10:30:20;95380.88;;;35.00;27.23
34742;BME280;20968;42.696;23.360;2022-07-22T10:33:21;95376.53;;;35.26;27.07
34742;BME280;20968;42.696;23.360;2022-07-22T10:35:54;95378.13;;;35.29;26.94
34742;BME280;20968;42.696;23.360;2022-07-22T10:38:20;95381.19;;;35.33;27.91
34742;BME280;20968;42.696;23.360;2022-07-22T10:43:46;95377.25;;;35.53;26.66
34742;BME280;20968;42.696;23.360;2022-07-22T10:46:13;95363.84;;;35.58;29.78
34742;BME280;20968;42.696;23.360;2022-07-22T10:51:12;95375.53;;;35.48;26.43
34742;BME280;20968;42.696;23.360;2022-07-22T10:53:53;95370.41;;;35.47;26.87
34742;BME280;20968;42.696;23.360;2022-07-22T10:56:33;95364.06;;;35.62;26.11
34742;BME280;20968;42.696;23.360;2022-07-22T10:59:11;95368.75;;;35.84;27.92
34742;BME280;20968;42.696;23.360;2022-07-22T11:01:49;95365.97;;;35.99;25.69
34742;BME280;20968;42.696;23.360;2022-07-22T11:04:18;95365.28;;;36.14;26.79
34742;BME280;20968;42.696;23.360;2022-07-22T11:06:48;95358.25;;;36.33;26.64
34742;BME280;20968;42.696;23.360;2022-07-22T11:09:16;95357.63;;;36.50;26.07
34742;BME280;20968;42.696;23.360;2022-07-22T11:11:50;95362.63;;;36.34;26.19
34742;BME280;20968;42.696;23.360;2022-07-22T11:14:34;95359.50;;;36.43;25.78
34742;BME280;20968;42.696;23.360;2022-07-22T11:17:09;95355.56;;;36.37;25.33
34742;BME280;20968;42.696;23.360;2022-07-22T11:19:37;95348.13;;;36.45;25.83
34742;BME280;20968;42.696;23.360;2022-07-22T11:22:09;95349.50;;;36.44;26.01
34742;BME280;20968;42.696;23.360;2022-07-22T11:24:36;95349.78;;;36.06;26.16
34742;BME280;20968;42.696;23.360;2022-07-22T11:27:02;95355.56;;;36.21;26.82
34742;BME280;20968;42.696;23.360;2022-07-22T11:31:56;95358.13;;;36.75;25.16
34742;BME280;20968;42.696;23.360;2022-07-22T11:34:22;95349.31;;;36.71;26.35
34742;BME280;20968;42.696;23.360;2022-07-22T11:36:50;95354.59;;;36.92;26.38
34742;BME280;20968;42.696;23.360;2022-07-22T11:39:37;95351.69;;;37.07;26.20
34742;BME280;20968;42.696;23.360;2022-07-22T11:42:05;95351.59;;;37.21;25.08
34742;BME280;20968;42.696;23.360;2022-07-22T11:44:33;95344.94;;;36.85;25.44
34742;BME280;20968;42.696;23.360;2022-07-22T11:46:59;95345.50;;;36.82;26.21
34742;BME280;20968;42.696;23.360;2022-07-22T11:49:28;95335.50;;;36.52;25.83
34742;BME280;20968;42.696;23.360;2022-07-22T11:51:54;95343.03;;;36.30;26.18
34742;BME280;20968;42.696;23.360;2022-07-22T11:54:19;95339.91;;;36.24;26.78
34742;BME280;20968;42.696;23.360;2022-07-22T11:56:45;95344.25;;;36.10;26.77
34742;BME280;20968;42.696;23.360;2022-07-22T11:59:16;95340.63;;;36.09;27.59
34742;BME280;20968;42.696;23.360;2022-07-22T12:01:43;95335.09;;;36.29;26.86
34742;BME280;20968;42.696;23.360;2022-07-22T12:04:15;95341.59;;;36.45;26.55
34742;BME280;20968;42.696;23.360;2022-07-22T12:06:42;95342.53;;;36.34;26.74
34742;BME280;20968;42.696;23.360;2022-07-22T12:09:14;95335.31;;;36.63;26.69
34742;BME280;20968;42.696;23.360;2022-07-22T12:11:43;95328.34;;;36.38;26.64
34742;BME280;20968;42.696;23.360;2022-07-22T12:14:23;95337.06;;;36.55;26.89
34742;BME280;20968;42.696;23.360;2022-07-22T12:19:28;95330.88;;;36.91;26.47
34742;BME280;20968;42.696;23.360;2022-07-22T12:21:55;95326.19;;;37.00;26.25
34742;BME280;20968;42.696;23.360;2022-07-22T12:27:00;95329.78;;;37.16;26.06
34742;BME280;20968;42.696;23.360;2022-07-22T12:29:27;95328.63;;;37.38;26.51
34742;BME280;20968;42.696;23.360;2022-07-22T12:31:55;95324.06;;;37.48;24.41
34742;BME280;20968;42.696;23.360;2022-07-22T12:39:39;95329.63;;;37.12;25.39
34742;BME280;20968;42.696;23.360;2022-07-22T12:42:16;95325.81;;;37.07;25.99
34742;BME280;20968;42.696;23.360;2022-07-22T12:45:15;95322.47;;;37.13;25.48
34742;BME280;20968;42.696;23.360;2022-07-22T12:47:50;95316.44;;;37.07;25.52
34742;BME280;20968;42.696;23.360;2022-07-22T12:50:31;95323.06;;;36.94;25.52
34742;BME280;20968;42.696;23.360;2022-07-22T12:53:14;95321.16;;;37.16;25.48
34742;BME280;20968;42.696;23.360;2022-07-22T12:55:44;95319.19;;;36.72;25.00
34742;BME280;20968;42.696;23.360;2022-07-22T12:58:11;95307.94;;;36.78;24.83
34742;BME280;20968;42.696;23.360;2022-07-22T13:00:43;95299.53;;;36.66;25.42
34742;BME280;20968;42.696;23.360;2022-07-22T13:03:09;95305.75;;;36.46;24.70
34742;BME280;20968;42.696;23.360;2022-07-22T13:05:34;95313.09;;;36.49;25.03
34742;BME280;20968;42.696;23.360;2022-07-22T13:08:01;95317.56;;;36.38;24.83
34742;BME280;20968;42.696;23.360;2022-07-22T13:10:27;95321.22;;;36.39;25.71
34742;BME280;20968;42.696;23.360;2022-07-22T13:12:53;95309.06;;;36.71;25.20
34742;BME280;20968;42.696;23.360;2022-07-22T13:15:19;95317.94;;;37.08;24.91